createdAt,value
2017-09-17T00:02:27.244Z,6.30
2017-09-17T00:04:56.536Z,5.72
2017-09-17T00:07:27.151Z,6.50
2017-09-17T00:09:57.370Z,5.50
2017-09-17T00:12:26.614Z,5.20
2017-09-17T00:14:56.028Z,6.12
2017-09-17T00:17:25.304Z,7.00
2017-09-17T00:19:54.561Z,5.90
2017-09-17T00:22:23.804Z,6.37
2017-09-17T00:24:53.071Z,6.82
2017-09-17T00:27:22.336Z,7.80
2017-09-17T00:29:51.621Z,7.85
2017-09-17T00:32:20.881Z,7.50
2017-09-17T00:34:50.957Z,8.00
2017-09-17T00:37:20.212Z,8.50
2017-09-17T00:39:49.462Z,9.45
2017-09-17T00:42:18.747Z,8.48
2017-09-17T00:44:47.997Z,9.35
2017-09-17T00:47:18.019Z,8.95
2017-09-17T00:49:48.232Z,10.65
2017-09-17T00:52:18.244Z,10.75
2017-09-17T00:54:47.669Z,9.52
2017-09-17T00:57:16.913Z,9.50
2017-09-17T00:59:46.159Z,10.88
2017-09-17T01:02:15.443Z,10.02
2017-09-17T01:04:45.447Z,9.35
2017-09-17T01:07:14.704Z,9.38
2017-09-17T01:09:43.971Z,9.65
2017-09-17T01:12:13.971Z,9.63
2017-09-17T01:14:44.027Z,10.07
2017-09-17T01:17:13.262Z,9.80
2017-09-17T01:19:42.499Z,8.85
2017-09-17T01:22:12.523Z,8.32
2017-09-17T01:24:41.787Z,9.15
2017-09-17T01:27:11.068Z,8.90
2017-09-17T01:29:40.298Z,9.30
2017-09-17T01:32:09.531Z,9.55
2017-09-17T01:34:38.939Z,8.77
2017-09-17T01:37:08.175Z,8.73
2017-09-17T01:39:37.406Z,8.35
2017-09-17T01:42:07.423Z,8.75
2017-09-17T01:44:37.598Z,8.43
2017-09-17T01:47:06.831Z,8.95
2017-09-17T01:49:36.073Z,8.50
2017-09-17T01:52:05.479Z,8.02
2017-09-17T01:54:34.711Z,8.13
2017-09-17T01:57:03.942Z,8.75
2017-09-17T01:59:33.983Z,7.65
2017-09-17T02:02:03.976Z,8.07
2017-09-17T02:04:33.222Z,8.00
2017-09-17T02:07:02.475Z,9.73
2017-09-17T02:09:31.707Z,9.25
2017-09-17T02:12:00.979Z,9.25
2017-09-17T02:14:31.203Z,8.68
2017-09-17T02:17:01.243Z,8.50
2017-09-17T02:19:30.475Z,7.78
2017-09-17T02:21:59.713Z,9.90
2017-09-17T02:24:28.951Z,9.77
2017-09-17T02:26:58.198Z,8.77
2017-09-17T02:29:27.441Z,8.52
2017-09-17T02:31:56.714Z,7.95
2017-09-17T02:34:25.947Z,9.05
2017-09-17T02:36:55.179Z,10.07
2017-09-17T02:39:24.590Z,7.82
2017-09-17T02:41:53.817Z,7.87
2017-09-17T02:44:23.883Z,9.65
2017-09-17T02:46:53.238Z,8.93
2017-09-17T02:49:23.236Z,8.68
2017-09-17T02:51:52.481Z,9.23
2017-09-17T02:54:21.731Z,8.00
2017-09-17T02:56:50.963Z,8.73
2017-09-17T02:59:21.013Z,7.25
2017-09-17T03:01:50.243Z,8.23
2017-09-17T03:04:19.496Z,7.75
2017-09-17T03:06:48.963Z,8.57
2017-09-17T03:09:18.193Z,8.25
2017-09-17T03:11:48.247Z,9.45
2017-09-17T03:14:17.481Z,8.95
2017-09-17T03:16:46.735Z,8.88
2017-09-17T03:19:16.767Z,7.95
2017-09-17T03:21:45.996Z,7.20
2017-09-17T03:24:15.248Z,6.93
2017-09-17T03:26:44.480Z,9.57
2017-09-17T03:29:13.707Z,8.30
2017-09-17T03:31:42.963Z,8.70
2017-09-17T03:34:12.184Z,7.75
2017-09-17T03:36:41.410Z,9.57
2017-09-17T03:39:11.779Z,6.47
2017-09-17T03:41:41.767Z,6.87
2017-09-17T03:44:12.133Z,9.32
2017-09-17T03:46:41.375Z,10.60
2017-09-17T03:49:11.386Z,6.47
2017-09-17T03:51:40.647Z,7.15
2017-09-17T03:54:09.870Z,7.30
2017-09-17T03:56:39.104Z,7.85
2017-09-17T03:59:09.298Z,7.95
2017-09-17T04:01:38.534Z,9.38
2017-09-17T04:04:08.600Z,8.95
2017-09-17T04:06:37.835Z,9.10
2017-09-17T04:09:07.087Z,8.30
2017-09-17T04:11:36.362Z,6.95
2017-09-17T04:14:05.590Z,7.97
2017-09-17T04:16:34.814Z,6.72
2017-09-17T04:19:04.227Z,7.10
2017-09-17T04:21:33.466Z,8.23
2017-09-17T04:24:02.700Z,9.23
2017-09-17T04:26:32.793Z,8.50
2017-09-17T04:29:02.027Z,7.22
2017-09-17T04:31:31.258Z,8.05
2017-09-17T04:34:01.468Z,7.43
2017-09-17T04:36:30.707Z,8.02
2017-09-17T04:38:59.931Z,7.55
2017-09-17T04:41:29.179Z,8.57
2017-09-17T04:43:59.218Z,10.32
2017-09-17T04:46:28.469Z,11.43
2017-09-17T04:48:57.711Z,10.48
2017-09-17T04:51:26.975Z,9.55
2017-09-17T04:53:56.265Z,9.38
2017-09-17T04:56:25.462Z,8.98
2017-09-17T04:58:54.762Z,9.50
2017-09-17T05:01:24.002Z,10.55
2017-09-17T05:03:54.066Z,8.15
2017-09-17T05:06:23.299Z,6.85
2017-09-17T05:08:52.530Z,8.05
2017-09-17T05:11:21.809Z,8.13
2017-09-17T05:13:51.827Z,9.30
2017-09-17T05:16:21.442Z,10.57
2017-09-17T05:18:50.689Z,9.90
2017-09-17T05:21:19.922Z,9.57
2017-09-17T05:23:49.186Z,12.85
2017-09-17T05:26:18.486Z,10.98
2017-09-17T05:28:47.702Z,7.78
2017-09-17T05:31:16.984Z,6.28
2017-09-17T05:33:46.228Z,6.68
2017-09-17T05:36:15.457Z,8.00
2017-09-17T05:38:44.776Z,7.45
2017-09-17T05:41:14.047Z,8.60
2017-09-17T05:43:44.270Z,8.45
2017-09-17T05:46:13.484Z,7.70
2017-09-17T05:48:42.750Z,8.05
2017-09-17T05:51:12.178Z,7.97
2017-09-17T05:53:41.406Z,8.38
2017-09-17T05:56:10.635Z,8.02
2017-09-17T05:58:40.032Z,8.88
2017-09-17T06:01:09.316Z,8.20
2017-09-17T06:03:38.554Z,8.30
2017-09-17T06:06:07.811Z,7.47
2017-09-17T06:08:37.273Z,8.18
2017-09-17T06:11:06.819Z,8.25
2017-09-17T06:13:36.343Z,8.70
2017-09-17T06:16:05.546Z,9.05
2017-09-17T06:18:34.801Z,9.88
2017-09-17T06:21:04.055Z,12.20
2017-09-17T06:23:33.907Z,11.65
2017-09-17T06:26:03.178Z,11.93
2017-09-17T06:28:32.415Z,13.80
2017-09-17T06:31:01.666Z,13.30
2017-09-17T06:33:30.942Z,13.93
2017-09-17T06:36:00.177Z,13.55
2017-09-17T06:38:30.410Z,14.18
2017-09-17T06:40:59.653Z,14.02
2017-09-17T06:43:41.225Z,16.50
2017-09-17T06:46:10.517Z,15.25
2017-09-17T06:48:40.743Z,15.40
2017-09-17T06:51:10.656Z,14.00
2017-09-17T06:53:39.913Z,13.30
2017-09-17T06:56:09.144Z,14.85
2017-09-17T06:58:38.522Z,15.25
2017-09-17T07:01:08.701Z,15.75
2017-09-17T07:03:38.702Z,16.83
2017-09-17T07:06:08.730Z,16.17
2017-09-17T07:08:38.011Z,14.80
2017-09-17T07:11:08.132Z,15.18
2017-09-17T07:13:38.582Z,16.20
2017-09-17T07:16:07.967Z,14.25
2017-09-17T07:18:37.220Z,14.55
2017-09-17T07:21:06.795Z,14.52
2017-09-17T07:23:36.115Z,14.55
2017-09-17T07:26:05.359Z,16.08
2017-09-17T07:28:35.386Z,14.25
2017-09-17T07:31:04.659Z,14.10
2017-09-17T07:33:33.939Z,14.90
2017-09-17T07:36:04.091Z,13.62
2017-09-17T07:38:34.154Z,14.07
2017-09-17T07:41:03.406Z,14.93
2017-09-17T07:43:33.472Z,15.95
2017-09-17T07:46:02.733Z,15.18
2017-09-17T07:48:31.971Z,14.93
2017-09-17T07:51:01.418Z,14.35
2017-09-17T07:53:30.673Z,14.43
2017-09-17T07:55:59.918Z,12.40
2017-09-17T07:58:29.251Z,13.93
2017-09-17T08:00:58.563Z,12.48
2017-09-17T08:03:27.875Z,12.85
2017-09-17T08:05:58.055Z,14.10
2017-09-17T08:08:27.301Z,11.55
2017-09-17T08:10:56.559Z,10.40
2017-09-17T08:13:26.591Z,8.18
2017-09-17T08:15:56.709Z,8.25
2017-09-17T08:18:25.919Z,7.60
2017-09-17T08:20:55.165Z,8.23
2017-09-17T08:23:24.455Z,8.68
2017-09-17T08:25:53.723Z,8.88
2017-09-17T08:28:22.974Z,7.47
2017-09-17T08:30:52.251Z,7.90
2017-09-17T08:33:21.499Z,7.62
2017-09-17T08:35:51.685Z,8.48
2017-09-17T08:38:20.932Z,8.60
2017-09-17T08:40:50.208Z,8.00
2017-09-17T08:43:19.514Z,7.22
2017-09-17T08:45:48.811Z,9.40
2017-09-17T08:48:18.083Z,7.93
2017-09-17T08:50:47.315Z,7.72
2017-09-17T08:53:16.616Z,8.40
2017-09-17T08:55:45.907Z,7.22
2017-09-17T08:58:15.107Z,7.53
2017-09-17T09:00:44.607Z,6.25
2017-09-17T09:03:13.848Z,6.47
2017-09-17T09:05:43.088Z,6.53
2017-09-17T09:08:12.359Z,6.50
2017-09-17T09:10:41.601Z,7.18
2017-09-17T09:13:10.847Z,7.05
2017-09-17T09:15:40.135Z,7.20
2017-09-17T09:18:10.144Z,6.87
2017-09-17T09:20:40.157Z,6.87
2017-09-17T09:23:09.422Z,7.55
2017-09-17T09:25:38.658Z,8.00
2017-09-17T09:28:07.882Z,6.32
2017-09-17T09:30:37.185Z,7.20
2017-09-17T09:33:07.180Z,5.85
2017-09-17T09:35:37.372Z,5.93
2017-09-17T09:38:06.666Z,5.30
2017-09-17T09:40:35.908Z,5.20
2017-09-17T09:43:06.012Z,5.47
2017-09-17T09:45:35.263Z,5.35
2017-09-17T09:48:04.499Z,3.33
2017-09-17T09:50:33.870Z,1.98
2017-09-17T09:53:03.115Z,2.87
2017-09-17T09:55:32.347Z,3.72
2017-09-17T09:58:01.663Z,4.45
2017-09-17T10:00:30.885Z,4.47
2017-09-17T10:03:00.292Z,4.43
2017-09-17T10:05:29.527Z,4.05
2017-09-17T10:07:59.550Z,3.67
2017-09-17T10:10:30.962Z,3.97
2017-09-17T10:13:00.195Z,3.95
2017-09-17T10:15:30.371Z,3.65
2017-09-17T10:17:59.664Z,3.60
2017-09-17T10:20:28.911Z,3.95
2017-09-17T10:22:59.101Z,3.30
2017-09-17T10:25:28.380Z,3.97
2017-09-17T10:27:58.399Z,3.37
2017-09-17T10:30:27.604Z,2.25
2017-09-17T10:32:56.831Z,2.55
2017-09-17T10:35:26.295Z,2.40
2017-09-17T10:37:55.540Z,2.37
2017-09-17T10:40:24.775Z,2.50
2017-09-17T10:42:54.207Z,2.80
2017-09-17T10:45:23.451Z,1.90
2017-09-17T10:47:53.714Z,2.75
2017-09-17T10:50:23.688Z,3.15
2017-09-17T10:52:52.955Z,2.90
2017-09-17T10:55:22.352Z,2.72
2017-09-17T10:57:51.597Z,2.90
2017-09-17T11:00:21.626Z,2.33
2017-09-17T11:02:51.695Z,2.50
2017-09-17T11:05:20.934Z,2.28
2017-09-17T11:07:50.220Z,2.25
2017-09-17T11:10:19.480Z,2.25
2017-09-17T11:12:48.936Z,1.40
2017-09-17T11:15:18.943Z,1.80
2017-09-17T11:17:48.234Z,2.12
2017-09-17T11:20:17.476Z,1.77
2017-09-17T11:22:47.036Z,2.45
2017-09-17T11:25:16.324Z,2.10
2017-09-17T11:27:45.580Z,1.95
2017-09-17T11:30:14.828Z,1.50
2017-09-17T11:32:44.095Z,1.65
2017-09-17T11:35:13.328Z,1.80
2017-09-17T11:37:42.599Z,1.90
2017-09-17T11:40:11.838Z,1.80
2017-09-17T11:42:41.289Z,2.20
2017-09-17T11:45:10.492Z,1.60
2017-09-17T11:47:39.902Z,2.33
2017-09-17T11:50:10.066Z,1.70
2017-09-17T11:52:39.299Z,1.60
2017-09-17T11:55:09.324Z,1.50
2017-09-17T11:57:38.792Z,1.80
2017-09-17T12:00:08.147Z,1.30
2017-09-17T12:02:37.427Z,1.17
2017-09-17T12:05:07.483Z,1.20
2017-09-17T12:07:36.735Z,1.30
2017-09-17T12:10:06.947Z,1.40
2017-09-17T12:12:36.187Z,1.23
2017-09-17T12:15:05.436Z,1.62
2017-09-17T12:17:34.911Z,1.20
2017-09-17T12:20:04.125Z,1.20
2017-09-17T12:22:33.372Z,1.27
2017-09-17T12:25:03.390Z,1.50
2017-09-17T12:27:33.391Z,1.60
2017-09-17T12:30:03.440Z,1.70
2017-09-17T12:32:32.688Z,1.40
2017-09-17T12:35:01.934Z,1.85
2017-09-17T12:37:31.264Z,1.75
2017-09-17T12:40:00.545Z,1.20
2017-09-17T12:42:29.747Z,1.45
2017-09-17T12:44:59.207Z,1.42
2017-09-17T12:47:28.445Z,1.30
2017-09-17T12:49:57.691Z,1.17
2017-09-17T12:52:26.998Z,1.30
2017-09-17T12:54:56.228Z,1.62
2017-09-17T12:57:37.988Z,1.60
2017-09-17T13:00:10.547Z,1.48
2017-09-17T13:02:40.982Z,1.10
2017-09-17T13:05:10.212Z,1.50
2017-09-17T13:07:40.440Z,1.20
2017-09-17T13:10:09.684Z,1.67
2017-09-17T13:12:43.465Z,1.30
2017-09-17T13:15:13.581Z,1.20
2017-09-17T13:17:42.911Z,1.60
2017-09-17T13:20:12.164Z,1.65
2017-09-17T13:22:42.274Z,1.40
2017-09-17T13:25:12.330Z,1.52
2017-09-17T13:27:41.911Z,1.12
2017-09-17T13:30:11.964Z,1.30
2017-09-17T13:32:41.225Z,1.20
2017-09-17T13:35:10.480Z,1.52
2017-09-17T13:38:03.828Z,1.83
2017-09-17T13:40:46.176Z,2.05
2017-09-17T13:43:26.369Z,1.80
2017-09-17T13:46:07.481Z,2.20
2017-09-17T13:49:22.352Z,2.30
2017-09-17T13:55:23.191Z,2.10
2017-09-17T13:58:03.169Z,2.30
2017-09-17T14:01:00.273Z,2.25
2017-09-17T14:07:07.168Z,2.70
2017-09-17T14:09:36.416Z,1.40
2017-09-17T14:12:05.669Z,1.10
2017-09-17T14:14:34.962Z,1.50
2017-09-17T14:17:04.259Z,1.10
2017-09-17T14:19:33.541Z,1.10
2017-09-17T14:22:02.811Z,1.65
2017-09-17T14:24:32.052Z,1.20
2017-09-17T14:27:01.295Z,1.50
2017-09-17T14:29:32.519Z,2.12
2017-09-17T14:32:02.548Z,1.50
2017-09-17T14:34:31.805Z,1.42
2017-09-17T14:37:01.839Z,1.33
2017-09-17T14:39:31.083Z,1.23
2017-09-17T14:42:00.324Z,1.45
2017-09-17T14:44:32.071Z,1.50
2017-09-17T14:47:01.323Z,1.30
2017-09-17T14:49:30.618Z,1.30
2017-09-17T14:51:59.957Z,1.37
2017-09-17T14:54:29.191Z,1.40
2017-09-17T14:56:58.619Z,1.45
2017-09-17T14:59:28.528Z,1.95
2017-09-17T15:01:58.219Z,3.10
2017-09-17T15:04:27.833Z,3.40
2017-09-17T15:06:58.492Z,2.60
2017-09-17T15:09:27.912Z,1.27
2017-09-17T15:11:57.397Z,1.80
2017-09-17T15:14:27.627Z,2.83
2017-09-17T15:16:57.639Z,1.73
2017-09-17T15:19:26.992Z,1.50
2017-09-17T15:21:56.251Z,1.92
2017-09-17T15:24:25.505Z,1.75
2017-09-17T15:26:55.302Z,1.30
2017-09-17T15:29:24.708Z,1.75
2017-09-17T15:31:54.209Z,1.90
2017-09-17T15:34:23.887Z,1.50
2017-09-17T15:36:53.478Z,3.58
2017-09-17T15:39:22.864Z,1.77
2017-09-17T15:41:52.293Z,1.40
2017-09-17T15:44:22.698Z,1.30
2017-09-17T15:46:52.788Z,1.40
2017-09-17T15:49:22.248Z,1.87
2017-09-17T15:51:51.678Z,1.48
2017-09-17T15:54:21.200Z,1.60
2017-09-17T15:56:51.404Z,2.33
2017-09-17T15:59:20.916Z,1.70
2017-09-17T16:01:50.898Z,2.12
2017-09-17T16:04:20.435Z,1.77
2017-09-17T16:06:50.676Z,2.83
2017-09-17T16:09:19.899Z,2.20
2017-09-17T16:11:49.165Z,2.10
2017-09-17T16:14:18.424Z,2.20
2017-09-17T16:16:48.435Z,2.30
2017-09-17T16:19:17.735Z,2.30
2017-09-17T16:21:46.979Z,2.05
2017-09-17T16:24:16.223Z,2.08
2017-09-17T16:26:47.412Z,1.67
2017-09-17T16:29:16.652Z,2.00
2017-09-17T16:31:46.096Z,6.50
2017-09-17T16:34:16.101Z,2.25
2017-09-17T16:36:45.376Z,1.90
2017-09-17T16:39:35.860Z,2.50
2017-09-17T16:42:12.473Z,3.28
2017-09-17T16:44:58.352Z,3.70
2017-09-17T16:47:48.805Z,4.35
2017-09-17T16:50:28.006Z,3.10
2017-09-17T16:53:18.373Z,4.10
2017-09-17T16:55:53.765Z,3.83
2017-09-17T16:58:24.003Z,2.60
2017-09-17T17:01:03.508Z,2.80
2017-09-17T17:03:45.969Z,3.22
2017-09-17T17:06:35.192Z,2.80
2017-09-17T17:09:17.378Z,3.30
2017-09-17T17:12:09.938Z,2.90
2017-09-17T17:14:57.142Z,3.47
2017-09-17T17:20:40.511Z,3.60
2017-09-17T17:23:36.545Z,3.55
2017-09-17T17:28:57.016Z,3.42
2017-09-17T17:44:58.638Z,2.28
2017-09-17T17:47:31.176Z,2.33
2017-09-17T17:50:02.222Z,2.03
2017-09-17T17:52:32.231Z,2.60
2017-09-17T17:55:02.260Z,2.50
2017-09-17T17:57:32.283Z,1.80
2017-09-17T18:00:02.316Z,2.30
2017-09-17T18:02:31.587Z,2.17
2017-09-17T18:05:01.620Z,2.08
2017-09-17T18:07:30.872Z,2.35
2017-09-17T18:10:00.139Z,2.20
2017-09-17T18:12:29.817Z,2.12
2017-09-17T18:14:59.888Z,2.45
2017-09-17T18:17:29.177Z,1.90
2017-09-17T18:19:58.449Z,3.75
2017-09-17T18:22:27.709Z,5.65
2017-09-17T18:24:58.656Z,4.70
2017-09-17T18:27:27.919Z,3.20
2017-09-17T18:29:57.189Z,2.70
2017-09-17T18:32:26.467Z,2.85
2017-09-17T18:34:55.728Z,2.90
2017-09-17T18:37:25.089Z,3.10
2017-09-17T18:39:55.145Z,2.80
2017-09-17T18:42:24.398Z,2.85
2017-09-17T18:44:54.436Z,2.60
2017-09-17T18:47:24.490Z,2.25
2017-09-17T18:49:53.735Z,2.20
2017-09-17T18:52:23.774Z,2.25
2017-09-17T18:54:53.174Z,3.03
2017-09-17T18:57:22.432Z,2.37
2017-09-17T18:59:51.682Z,2.55
2017-09-17T19:02:20.951Z,2.35
2017-09-17T19:04:51.124Z,2.10
2017-09-17T19:07:20.399Z,2.40
2017-09-17T19:09:49.686Z,2.47
2017-09-17T19:12:19.701Z,2.53
2017-09-17T19:14:58.569Z,2.28
2017-09-17T19:17:30.287Z,3.50
2017-09-17T19:20:00.321Z,3.07
2017-09-17T19:22:30.831Z,2.80
2017-09-17T19:25:00.856Z,2.15
2017-09-17T19:27:30.112Z,2.20
2017-09-17T19:29:59.377Z,2.30
2017-09-17T19:32:28.630Z,2.37
2017-09-17T19:34:57.876Z,2.17
2017-09-17T19:37:27.152Z,2.28
2017-09-17T19:39:57.223Z,2.50
2017-09-17T19:42:27.592Z,2.50
2017-09-17T19:44:57.648Z,2.50
2017-09-17T19:47:26.914Z,2.50
2017-09-17T19:49:57.230Z,2.87
2017-09-17T19:52:27.243Z,2.78
2017-09-17T19:54:57.307Z,2.70
2017-09-17T19:57:26.596Z,2.78
2017-09-17T19:59:55.844Z,2.90
2017-09-17T20:02:25.738Z,3.65
2017-09-17T20:04:55.051Z,3.30
2017-09-17T20:07:24.424Z,3.05
2017-09-17T20:09:54.395Z,3.05
2017-09-17T20:12:23.635Z,2.67
2017-09-17T20:14:52.882Z,3.22
2017-09-17T20:17:22.130Z,3.05
2017-09-17T20:19:51.379Z,3.30
2017-09-17T20:22:20.639Z,3.20
2017-09-17T20:24:49.885Z,3.92
2017-09-17T20:27:19.128Z,4.10
2017-09-17T20:29:48.524Z,3.78
2017-09-17T20:32:17.821Z,7.90
2017-09-17T20:34:47.852Z,4.93
2017-09-17T20:37:17.544Z,3.03
2017-09-17T20:39:46.820Z,3.30
2017-09-17T20:42:17.752Z,3.20
2017-09-17T20:44:47.758Z,3.00
2017-09-17T20:47:17.027Z,3.55
2017-09-17T20:49:46.272Z,3.40
2017-09-17T20:52:17.107Z,2.72
2017-09-17T20:54:47.116Z,3.03
2017-09-17T20:57:16.550Z,2.72
2017-09-17T20:59:45.793Z,3.17
2017-09-17T21:02:15.033Z,2.95
2017-09-17T21:04:44.388Z,2.80
2017-09-17T21:07:13.625Z,3.33
2017-09-17T21:09:43.019Z,3.17
2017-09-17T21:12:12.324Z,3.40
2017-09-17T21:14:41.580Z,4.10
2017-09-17T21:17:10.811Z,3.67
2017-09-17T21:19:40.232Z,3.40
2017-09-17T21:22:10.240Z,3.40
2017-09-17T21:24:39.669Z,3.62
2017-09-17T21:27:09.683Z,3.50
2017-09-17T21:29:39.864Z,4.30
2017-09-17T21:32:09.107Z,3.28
2017-09-17T21:34:39.219Z,4.00
2017-09-17T21:37:09.298Z,4.62
2017-09-17T21:39:38.547Z,4.85
2017-09-17T21:42:08.569Z,3.80
2017-09-17T21:44:38.575Z,4.00
2017-09-17T21:47:08.614Z,3.95
2017-09-17T21:49:37.851Z,4.80
2017-09-17T21:52:07.112Z,3.90
2017-09-17T21:54:36.395Z,4.72
2017-09-17T21:57:06.418Z,4.65
2017-09-17T21:59:36.016Z,4.93
2017-09-17T22:02:06.025Z,4.37
2017-09-17T22:04:35.334Z,4.40
2017-09-17T22:07:05.353Z,4.70
2017-09-17T22:09:35.395Z,4.78
2017-09-17T22:12:04.627Z,4.65
2017-09-17T22:14:33.874Z,4.37
2017-09-17T22:17:04.053Z,3.25
2017-09-17T22:19:33.383Z,2.90
2017-09-17T22:22:03.419Z,2.62
2017-09-17T22:24:34.411Z,2.45
2017-09-17T22:27:03.661Z,2.80
2017-09-17T22:29:33.872Z,2.60
2017-09-17T22:32:03.876Z,2.85
2017-09-17T22:34:33.283Z,2.72
2017-09-17T22:37:02.526Z,2.20
2017-09-17T22:39:31.763Z,2.35
2017-09-17T22:42:01.808Z,2.37
2017-09-17T22:44:31.815Z,2.55
2017-09-17T22:47:01.087Z,2.35
2017-09-17T22:49:30.319Z,2.30
2017-09-17T22:51:59.592Z,2.10
2017-09-17T22:54:28.859Z,2.20
2017-09-17T22:56:58.138Z,2.33
2017-09-17T22:59:28.163Z,2.15
2017-09-17T23:01:58.165Z,2.40
2017-09-17T23:04:28.349Z,2.60
2017-09-17T23:06:57.729Z,3.70
2017-09-17T23:09:26.947Z,2.78
2017-09-17T23:11:56.206Z,2.50
2017-09-17T23:14:26.227Z,2.78
2017-09-17T23:16:55.476Z,2.72
2017-09-17T23:19:25.568Z,2.40
2017-09-17T23:21:54.812Z,2.58
2017-09-17T23:24:24.058Z,3.58
2017-09-17T23:26:53.344Z,2.60
2017-09-17T23:29:23.343Z,2.67
2017-09-17T23:31:52.640Z,2.80
2017-09-17T23:34:21.910Z,2.53
2017-09-17T23:36:51.140Z,2.40
2017-09-17T23:39:21.182Z,2.67
2017-09-17T23:41:50.456Z,2.50
2017-09-17T23:44:19.677Z,2.30
2017-09-17T23:46:48.936Z,2.70
2017-09-17T23:49:18.187Z,2.47
2017-09-17T23:51:49.920Z,3.00
2017-09-17T23:54:19.349Z,2.40
2017-09-17T23:56:48.609Z,2.10
2017-09-17T23:59:18.024Z,2.00
